Catalina Express — WCJ6210 — position and weather

sailwx.info

Track history (hours):
 
Tides and Currents Weather Stations Pressure Air Temp Water Temp Dewpoint Dewpoint Depression Visibility Wind Speed Wind Dir Waves Ship Positions

Catalina Express

Owner: RGWT INC, Long Beach, CA. More information available from US FCC via Universal Licensing System and Coast Guard Vessel Documentation Center.

Last reported at 2018-Feb-20 03:12 UTC. Time now 2018-Feb-20 15:56 UTC.
Position N 33°45' W 118°16'.

Length 37 m; draft 1.1 m.

Type: High speed craft. MMSI: 366943960.

Date/timePositionNaut miles runAvg speedWind from/ knotsBaromVisibWave heightAir tempDewpointWater temp
2018-Feb-20 03:12N 33°45' W 118°16'0 0.0
2018-Feb-20 03:00N 33°45' W 118°16'7 2.5
2018-Feb-20 00:02N 33°38' W 118°16'127.6
2018-Feb-20 00:00N 33°38' W 118°16'613.2
2018-Feb-19 23:30N 33°45' W 118°16'0 0.0
2018-Feb-19 23:01N 33°45' W 118°16'0 0.0
2018-Feb-19 22:31N 33°45' W 118°16'0 0.0
2018-Feb-19 22:01N 33°45' W 118°16'0 0.0
2018-Feb-19 21:31N 33°45' W 118°16'0 0.0
2018-Feb-19 21:01N 33°45' W 118°16'0 0.0
2018-Feb-19 20:30N 33°45' W 118°16'0 0.0
2018-Feb-19 20:01N 33°45' W 118°16'4 8.5
2018-Feb-19 19:31N 33°41' W 118°15'5 2.6
2018-Feb-19 17:41N 33°36' W 118°16'527.4
2018-Feb-19 17:30N 33°41' W 118°15'4 8.2
2018-Feb-19 17:00N 33°45' W 118°16'0 0.0
2018-Feb-19 16:30N 33°45' W 118°16'0 0.0
2018-Feb-19 16:00N 33°45' W 118°16'0 0.0
2018-Feb-19 15:30N 33°45' W 118°16'0 0.0
2018-Feb-19 15:00N 33°45' W 118°16'0 0.0
2018-Feb-19 04:03N 33°45' W 118°16'0 0.0
2018-Feb-19 04:01N 33°45' W 118°16'0 0.0
2018-Feb-19 03:30N 33°45' W 118°16'0 0.0
2018-Feb-19 03:00N 33°45' W 118°16'2 3.6
2018-Feb-19 02:31N 33°43' W 118°16'5 1.5
2018-Feb-18 23:27N 33°39' W 118°18'613.2
2018-Feb-18 23:00N 33°45' W 118°17'0 0.5
2018-Feb-18 22:30N 33°45' W 118°16'0 0.0
2018-Feb-18 22:00N 33°45' W 118°16'0 0.0
2018-Feb-18 21:30N 33°45' W 118°16'0 0.0
2018-Feb-18 21:00N 33°45' W 118°16'3 5.4
2018-Feb-18 20:31N 33°43' W 118°15'2111.4
2018-Feb-18 18:41N 33°22' W 118°20'1512.9
2018-Feb-18 17:33N 33°36' W 118°16'226.7
2018-Feb-18 17:30N 33°38' W 118°16'714.3
2018-Feb-18 17:00N 33°45' W 118°16'0 0.0
2018-Feb-18 16:30N 33°45' W 118°16'0 0.0
2018-Feb-18 16:00N 33°45' W 118°16'0 0.0
2018-Feb-18 15:30N 33°45' W 118°16'0 0.0
2018-Feb-18 15:00N 33°45' W 118°16'0 0.0
2018-Feb-18 14:30N 33°45' W 118°16'0 0.0
2018-Feb-18 14:00N 33°45' W 118°16'0 0.0
2018-Feb-18 13:30N 33°45' W 118°16'0 0.0
2018-Feb-18 04:04N 33°45' W 118°16'0 0.0
2018-Feb-18 04:00N 33°45' W 118°16'0 0.0
2018-Feb-18 03:30N 33°45' W 118°16'0 0.0
2018-Feb-18 03:00N 33°45' W 118°16'1 2.3
2018-Feb-18 02:30N 33°44' W 118°16'1222.3
2018-Feb-18 01:58N 33°32' W 118°16'9 8.7
2018-Feb-18 00:54N 33°23' W 118°21'8 9.5
2018-Feb-18 00:03N 33°27' W 118°30'0 9.7
2018-Feb-18 00:00N 33°27' W 118°29'1326.5
2018-Feb-17 23:30N 33°37' W 118°20'815.1
2018-Feb-17 23:00N 33°44' W 118°17'1 1.1
2018-Feb-17 22:30N 33°45' W 118°16'0 0.0
2018-Feb-17 22:01N 33°45' W 118°16'0 0.0
2018-Feb-17 21:31N 33°45' W 118°16'0 0.0
2018-Feb-17 21:01N 33°45' W 118°16'0 0.0
2018-Feb-17 20:30N 33°45' W 118°16'0 0.0
2018-Feb-17 20:01N 33°45' W 118°16'4 9.0
2018-Feb-17 19:31N 33°41' W 118°15'1326.2
2018-Feb-17 19:00N 33°28' W 118°19'6 7.0
2018-Feb-17 18:12N 33°22' W 118°19'924.7
2018-Feb-17 17:49N 33°31' W 118°18'824.7
2018-Feb-17 17:31N 33°39' W 118°16'612.3
2018-Feb-17 17:00N 33°45' W 118°16'0 0.0
2018-Feb-17 16:30N 33°45' W 118°16'0 0.0
2018-Feb-17 05:22N 33°45' W 118°16'0 0.0
2018-Feb-17 05:00N 33°45' W 118°16'0 0.0
2018-Feb-17 04:30N 33°45' W 118°16'1 1.4
2018-Feb-17 04:00N 33°44' W 118°17'1319.7
2018-Feb-17 03:20N 33°31' W 118°17'9 8.4
2018-Feb-17 02:18N 33°23' W 118°20'924.2
2018-Feb-17 01:55N 33°27' W 118°29'0 0.6
2018-Feb-17 01:29N 33°27' W 118°30'1225.9
2018-Feb-17 01:00N 33°36' W 118°20'917.1
2018-Feb-17 00:30N 33°44' W 118°17'1 1.3
2018-Feb-17 00:00N 33°45' W 118°16'0 0.0
2018-Feb-16 23:30N 33°45' W 118°16'0 0.0
2018-Feb-16 23:00N 33°45' W 118°16'0 0.0
2018-Feb-16 22:30N 33°45' W 118°16'0 0.0
2018-Feb-16 22:00N 33°45' W 118°16'0 0.0
2018-Feb-16 21:30N 33°45' W 118°16'0 0.0
2018-Feb-16 21:00N 33°45' W 118°16'2 3.1
2018-Feb-16 20:30N 33°43' W 118°16'7 2.4
2018-Feb-16 17:33N 33°36' W 118°16'126.8
2018-Feb-16 17:30N 33°38' W 118°16'714.4
2018-Feb-16 17:00N 33°45' W 118°16'0 0.0
2018-Feb-16 16:30N 33°45' W 118°16'0 0.0
2018-Feb-16 16:00N 33°45' W 118°16'0 0.0
2018-Feb-16 15:30N 33°45' W 118°16'0 0.0
2018-Feb-16 15:00N 33°45' W 118°16'0 0.0
2018-Feb-16 14:30N 33°45' W 118°16'0 0.0
2018-Feb-16 14:00N 33°45' W 118°16'0 0.0
2018-Feb-16 13:30N 33°45' W 118°16'0 0.0
2018-Feb-15 23:27N 33°45' W 118°16'0 0.0
2018-Feb-15 23:01N 33°45' W 118°16'0 0.0
2018-Feb-15 22:30N 33°45' W 118°16'0 0.0
2018-Feb-15 22:00N 33°45' W 118°16'0 0.0
2018-Feb-15 21:30N 33°45' W 118°16'0 0.0
2018-Feb-15 21:00N 33°45' W 118°16'0 0.0
2018-Feb-15 20:30N 33°45' W 118°16'0 0.0
2018-Feb-15 20:00N 33°45' W 118°16'0 0.0
2018-Feb-15 19:30N 33°45' W 118°16'0 0.0
2018-Feb-15 19:00N 33°45' W 118°16'0 0.0
2018-Feb-15 18:30N 33°45' W 118°16'0 0.0
2018-Feb-15 18:00N 33°45' W 118°16'0 0.0
2018-Feb-15 17:30N 33°45' W 118°16'0 0.0
2018-Feb-15 17:00N 33°45' W 118°16'0 0.0
2018-Feb-15 16:30N 33°45' W 118°16'0 0.0
2018-Feb-15 16:00N 33°45' W 118°16'0 0.0
2018-Feb-15 15:30N 33°45' W 118°16'0 0.0
2018-Feb-15 15:00N 33°45' W 118°16'0 0.0
2018-Feb-15 14:30N 33°45' W 118°16'0 0.0
2018-Feb-15 14:00N 33°45' W 118°16'0 0.0
2018-Feb-15 13:30N 33°45' W 118°16'0 0.0
2018-Feb-14 23:25N 33°45' W 118°16'0 0.0
2018-Feb-14 23:01N 33°45' W 118°16'0 0.0
2018-Feb-14 22:31N 33°45' W 118°16'0 0.3
2018-Feb-14 22:01N 33°45' W 118°16'712.5
2018-Feb-14 21:28N 33°38' W 118°16'4 2.0
2018-Feb-14 19:40N 33°35' W 118°14'425.5
2018-Feb-14 19:31N 33°39' W 118°12'713.9
2018-Feb-14 19:00N 33°46' W 118°12'0 0.0
2018-Feb-14 18:30N 33°46' W 118°12'0 0.4
2018-Feb-14 18:00N 33°46' W 118°12'4 8.2
2018-Feb-14 17:30N 33°44' W 118°17'1 1.7
2018-Feb-14 17:00N 33°45' W 118°16'0 0.0
2018-Feb-14 16:30N 33°45' W 118°16'0 0.0
2018-Feb-14 16:00N 33°45' W 118°16'0 0.0
2018-Feb-14 15:30N 33°45' W 118°16'0 0.0
2018-Feb-14 15:00N 33°45' W 118°16'0 0.0
2018-Feb-14 14:30N 33°45' W 118°16'0 0.0
2018-Feb-14 14:00N 33°45' W 118°16'  
2018-Feb-10 05:04N 33°45' W 118°16'0 0.0
2018-Feb-10 05:00N 33°45' W 118°16'0 0.0
2018-Feb-10 04:31N 33°45' W 118°16'0 0.0
2018-Feb-10 04:00N 33°45' W 118°16'712.9
2018-Feb-10 03:28N 33°38' W 118°15'  
Track history (hours):
 
Tides and Currents Weather Stations Pressure Air Temp Water Temp Dewpoint Dewpoint Depression Visibility Wind Speed Wind Dir Waves Ship Positions

Catalina Express

Owner: RGWT INC, Long Beach, CA. More information available from US FCC via Universal Licensing System and Coast Guard Vessel Documentation Center.

Last reported at 2018-Feb-20 03:12 UTC. Time now 2018-Feb-20 15:56 UTC.
Position N 33°45' W 118°16'.

Length 37 m; draft 1.1 m.

Type: High speed craft. MMSI: 366943960.

Date/timePositionNaut miles runAvg speedWind from/ knotsBaromVisibWave heightAir tempDewpointWater temp
2018-Feb-20 03:12N 33°45' W 118°16'0 0.0
2018-Feb-20 03:00N 33°45' W 118°16'7 2.5
2018-Feb-20 00:02N 33°38' W 118°16'127.6
2018-Feb-20 00:00N 33°38' W 118°16'613.2
2018-Feb-19 23:30N 33°45' W 118°16'0 0.0
2018-Feb-19 23:01N 33°45' W 118°16'0 0.0
2018-Feb-19 22:31N 33°45' W 118°16'0 0.0
2018-Feb-19 22:01N 33°45' W 118°16'0 0.0
2018-Feb-19 21:31N 33°45' W 118°16'0 0.0
2018-Feb-19 21:01N 33°45' W 118°16'0 0.0
2018-Feb-19 20:30N 33°45' W 118°16'0 0.0
2018-Feb-19 20:01N 33°45' W 118°16'4 8.5
2018-Feb-19 19:31N 33°41' W 118°15'5 2.6
2018-Feb-19 17:41N 33°36' W 118°16'527.4
2018-Feb-19 17:30N 33°41' W 118°15'4 8.2
2018-Feb-19 17:00N 33°45' W 118°16'0 0.0
2018-Feb-19 16:30N 33°45' W 118°16'0 0.0
2018-Feb-19 16:00N 33°45' W 118°16'0 0.0
2018-Feb-19 15:30N 33°45' W 118°16'0 0.0
2018-Feb-19 15:00N 33°45' W 118°16'0 0.0
2018-Feb-19 04:03N 33°45' W 118°16'0 0.0
2018-Feb-19 04:01N 33°45' W 118°16'0 0.0
2018-Feb-19 03:30N 33°45' W 118°16'0 0.0
2018-Feb-19 03:00N 33°45' W 118°16'2 3.6
2018-Feb-19 02:31N 33°43' W 118°16'5 1.5
2018-Feb-18 23:27N 33°39' W 118°18'613.2
2018-Feb-18 23:00N 33°45' W 118°17'0 0.5
2018-Feb-18 22:30N 33°45' W 118°16'0 0.0
2018-Feb-18 22:00N 33°45' W 118°16'0 0.0
2018-Feb-18 21:30N 33°45' W 118°16'0 0.0
2018-Feb-18 21:00N 33°45' W 118°16'3 5.4
2018-Feb-18 20:31N 33°43' W 118°15'2111.4
2018-Feb-18 18:41N 33°22' W 118°20'1512.9
2018-Feb-18 17:33N 33°36' W 118°16'226.7
2018-Feb-18 17:30N 33°38' W 118°16'714.3
2018-Feb-18 17:00N 33°45' W 118°16'0 0.0
2018-Feb-18 16:30N 33°45' W 118°16'0 0.0
2018-Feb-18 16:00N 33°45' W 118°16'0 0.0
2018-Feb-18 15:30N 33°45' W 118°16'0 0.0
2018-Feb-18 15:00N 33°45' W 118°16'0 0.0
2018-Feb-18 14:30N 33°45' W 118°16'0 0.0
2018-Feb-18 14:00N 33°45' W 118°16'0 0.0
2018-Feb-18 13:30N 33°45' W 118°16'0 0.0
2018-Feb-18 04:04N 33°45' W 118°16'0 0.0
2018-Feb-18 04:00N 33°45' W 118°16'0 0.0
2018-Feb-18 03:30N 33°45' W 118°16'0 0.0
2018-Feb-18 03:00N 33°45' W 118°16'1 2.3
2018-Feb-18 02:30N 33°44' W 118°16'1222.3
2018-Feb-18 01:58N 33°32' W 118°16'9 8.7
2018-Feb-18 00:54N 33°23' W 118°21'8 9.5
2018-Feb-18 00:03N 33°27' W 118°30'0 9.7
2018-Feb-18 00:00N 33°27' W 118°29'1326.5
2018-Feb-17 23:30N 33°37' W 118°20'815.1
2018-Feb-17 23:00N 33°44' W 118°17'1 1.1
2018-Feb-17 22:30N 33°45' W 118°16'0 0.0
2018-Feb-17 22:01N 33°45' W 118°16'0 0.0
2018-Feb-17 21:31N 33°45' W 118°16'0 0.0
2018-Feb-17 21:01N 33°45' W 118°16'0 0.0
2018-Feb-17 20:30N 33°45' W 118°16'0 0.0
2018-Feb-17 20:01N 33°45' W 118°16'4 9.0
2018-Feb-17 19:31N 33°41' W 118°15'1326.2
2018-Feb-17 19:00N 33°28' W 118°19'6 7.0
2018-Feb-17 18:12N 33°22' W 118°19'924.7
2018-Feb-17 17:49N 33°31' W 118°18'824.7
2018-Feb-17 17:31N 33°39' W 118°16'612.3
2018-Feb-17 17:00N 33°45' W 118°16'0 0.0
2018-Feb-17 16:30N 33°45' W 118°16'0 0.0
2018-Feb-17 05:22N 33°45' W 118°16'0 0.0
2018-Feb-17 05:00N 33°45' W 118°16'0 0.0
2018-Feb-17 04:30N 33°45' W 118°16'1 1.4
2018-Feb-17 04:00N 33°44' W 118°17'1319.7
2018-Feb-17 03:20N 33°31' W 118°17'9 8.4
2018-Feb-17 02:18N 33°23' W 118°20'924.2
2018-Feb-17 01:55N 33°27' W 118°29'0 0.6
2018-Feb-17 01:29N 33°27' W 118°30'1225.9
2018-Feb-17 01:00N 33°36' W 118°20'917.1
2018-Feb-17 00:30N 33°44' W 118°17'1 1.3
2018-Feb-17 00:00N 33°45' W 118°16'0 0.0
2018-Feb-16 23:30N 33°45' W 118°16'0 0.0
2018-Feb-16 23:00N 33°45' W 118°16'0 0.0
2018-Feb-16 22:30N 33°45' W 118°16'0 0.0
2018-Feb-16 22:00N 33°45' W 118°16'0 0.0
2018-Feb-16 21:30N 33°45' W 118°16'0 0.0
2018-Feb-16 21:00N 33°45' W 118°16'2 3.1
2018-Feb-16 20:30N 33°43' W 118°16'7 2.4
2018-Feb-16 17:33N 33°36' W 118°16'126.8
2018-Feb-16 17:30N 33°38' W 118°16'714.4
2018-Feb-16 17:00N 33°45' W 118°16'0 0.0
2018-Feb-16 16:30N 33°45' W 118°16'0 0.0
2018-Feb-16 16:00N 33°45' W 118°16'0 0.0
2018-Feb-16 15:30N 33°45' W 118°16'0 0.0
2018-Feb-16 15:00N 33°45' W 118°16'0 0.0
2018-Feb-16 14:30N 33°45' W 118°16'0 0.0
2018-Feb-16 14:00N 33°45' W 118°16'0 0.0
2018-Feb-16 13:30N 33°45' W 118°16'0 0.0
2018-Feb-15 23:27N 33°45' W 118°16'0 0.0
2018-Feb-15 23:01N 33°45' W 118°16'0 0.0
2018-Feb-15 22:30N 33°45' W 118°16'0 0.0
2018-Feb-15 22:00N 33°45' W 118°16'0 0.0
2018-Feb-15 21:30N 33°45' W 118°16'0 0.0
2018-Feb-15 21:00N 33°45' W 118°16'0 0.0
2018-Feb-15 20:30N 33°45' W 118°16'0 0.0
2018-Feb-15 20:00N 33°45' W 118°16'0 0.0
2018-Feb-15 19:30N 33°45' W 118°16'0 0.0
2018-Feb-15 19:00N 33°45' W 118°16'0 0.0
2018-Feb-15 18:30N 33°45' W 118°16'0 0.0
2018-Feb-15 18:00N 33°45' W 118°16'0 0.0
2018-Feb-15 17:30N 33°45' W 118°16'0 0.0
2018-Feb-15 17:00N 33°45' W 118°16'0 0.0
2018-Feb-15 16:30N 33°45' W 118°16'0 0.0
2018-Feb-15 16:00N 33°45' W 118°16'0 0.0
2018-Feb-15 15:30N 33°45' W 118°16'0 0.0
2018-Feb-15 15:00N 33°45' W 118°16'0 0.0
2018-Feb-15 14:30N 33°45' W 118°16'0 0.0
2018-Feb-15 14:00N 33°45' W 118°16'0 0.0
2018-Feb-15 13:30N 33°45' W 118°16'0 0.0
2018-Feb-14 23:25N 33°45' W 118°16'0 0.0
2018-Feb-14 23:01N 33°45' W 118°16'0 0.0
2018-Feb-14 22:31N 33°45' W 118°16'0 0.3
2018-Feb-14 22:01N 33°45' W 118°16'712.5
2018-Feb-14 21:28N 33°38' W 118°16'4 2.0
2018-Feb-14 19:40N 33°35' W 118°14'425.5
2018-Feb-14 19:31N 33°39' W 118°12'713.9
2018-Feb-14 19:00N 33°46' W 118°12'0 0.0
2018-Feb-14 18:30N 33°46' W 118°12'0 0.4
2018-Feb-14 18:00N 33°46' W 118°12'4 8.2
2018-Feb-14 17:30N 33°44' W 118°17'1 1.7
2018-Feb-14 17:00N 33°45' W 118°16'0 0.0
2018-Feb-14 16:30N 33°45' W 118°16'0 0.0
2018-Feb-14 16:00N 33°45' W 118°16'0 0.0
2018-Feb-14 15:30N 33°45' W 118°16'0 0.0
2018-Feb-14 15:00N 33°45' W 118°16'0 0.0
2018-Feb-14 14:30N 33°45' W 118°16'0 0.0
2018-Feb-14 14:00N 33°45' W 118°16'  
2018-Feb-10 05:04N 33°45' W 118°16'0 0.0
2018-Feb-10 05:00N 33°45' W 118°16'0 0.0
2018-Feb-10 04:31N 33°45' W 118°16'0 0.0
2018-Feb-10 04:00N 33°45' W 118°16'712.9
2018-Feb-10 03:28N 33°38' W 118°15'  

Dump ship's entire track history